Europa — C6QK8 — position and weather

sailwx.info

Track history (hours):
 
Tides and Currents Weather Stations Pressure Air Temp Water Temp Dewpoint Dewpoint Depression Visibility Wind Speed Wind Dir Waves Ship Positions

Europa

Operator: Hapag-Lloyd Container Line

Last reported at 2017-Aug-17 03:30 UTC. Time now 2017-Aug-17 03:36 UTC.
Position N 64°31' E 010°11'.

Length 199 m; draft 6.2 m.

Type: Passenger vessel. MMSI: 308007000.

Date/timePositionNaut miles runAvg speedWind from/ knotsBaromVisibWave heightAir tempDewpointWater temp
2017-Aug-17 03:30N 64°31' E 010°11'612.0
2017-Aug-17 03:00N 64°26' E 010°04'611.8
2017-Aug-17 02:30N 64°21' E 009°55'611.9
2017-Aug-17 02:00N 64°16' E 009°48'611.4
2017-Aug-17 01:30N 64°11' E 009°41'612.1
2017-Aug-17 00:59N 64°06' E 009°34'611.7
2017-Aug-17 00:30N 64°01' E 009°28'612.0
2017-Aug-17 00:00N 63°55' E 009°22'612.9
2017-Aug-16 23:31N 63°50' E 009°16'713.6
2017-Aug-16 23:00N 63°43' E 009°14'816.1
2017-Aug-16 22:30N 63°35' E 009°16'815.3
2017-Aug-16 22:00N 63°29' E 009°03'816.7
2017-Aug-16 21:30N 63°26' E 008°46'917.1
2017-Aug-16 21:00N 63°23' E 008°28'817.0
2017-Aug-16 20:30N 63°18' E 008°14'917.4
2017-Aug-16 20:00N 63°13' E 007°57'816.9
2017-Aug-16 19:30N 63°09' E 007°41'714.1
2017-Aug-16 19:01N 63°05' E 007°28'713.4
2017-Aug-16 18:30N 63°03' E 007°14'713.6
2017-Aug-16 18:00N 63°01' E 006°60'713.6
2017-Aug-16 17:30N 62°57' E 006°48'815.1
2017-Aug-16 17:00N 62°51' E 006°59'816.2
2017-Aug-16 16:30N 62°43' E 006°59'611.1
2017-Aug-16 16:00N 62°44' E 007°11'0 0.1
2017-Aug-16 15:28N 62°44' E 007°11'0 0.0
2017-Aug-16 14:58N 62°44' E 007°11'0 0.0
2017-Aug-16 14:28N 62°44' E 007°11'0 0.0
2017-Aug-16 13:58N 62°44' E 007°11'0 0.0
2017-Aug-16 13:28N 62°44' E 007°11'0 0.0
2017-Aug-16 12:58N 62°44' E 007°11'0 0.0
2017-Aug-16 12:28N 62°44' E 007°11'0 0.0
2017-Aug-16 11:58N 62°44' E 007°11'0 0.0
2017-Aug-16 11:28N 62°44' E 007°11'0 0.0
2017-Aug-16 11:00N 62°44' E 007°11'0 0.6
2017-Aug-16 10:30N 62°44' E 007°11'4 7.8
2017-Aug-16 10:00N 62°41' E 007°06'816.3
2017-Aug-16 09:30N 62°37' E 007°22'815.1
2017-Aug-16 08:59N 62°34' E 007°37'2 4.5
2017-Aug-16 08:30N 62°34' E 007°42'0 0.0
2017-Aug-16 07:56N 62°34' E 007°42'0 0.0
2017-Aug-16 07:26N 62°34' E 007°42'0 0.0
2017-Aug-16 06:59N 62°34' E 007°42'0 0.0
2017-Aug-16 06:26N 62°34' E 007°42'0 0.0
2017-Aug-16 06:00N 62°34' E 007°42'0 0.7
2017-Aug-16 05:28N 62°34' E 007°41'510.2
2017-Aug-16 04:56N 62°33' E 007°29'613.6
2017-Aug-16 04:30N 62°37' E 007°20'713.5
2017-Aug-16 04:00N 62°40' E 007°06'612.7
2017-Aug-16 03:30N 62°41' E 006°53'612.9
2017-Aug-16 03:00N 62°39' E 006°40'713.2
2017-Aug-16 02:30N 62°38' E 006°26'713.1
2017-Aug-16 02:00N 62°38' E 006°11'3 6.8
2017-Aug-16 01:30N 62°35' E 006°10'612.1
2017-Aug-16 01:00N 62°29' E 006°07'611.9
2017-Aug-16 00:30N 62°27' E 005°55'612.8
2017-Aug-16 00:00N 62°30' E 005°43'612.7
2017-Aug-15 23:30N 62°30' E 005°29'612.8
2017-Aug-15 23:00N 62°30' E 005°15'713.3
2017-Aug-15 22:30N 62°30' E 005°01'712.3
2017-Aug-15 21:57N 62°25' E 004°51'612.8
2017-Aug-15 21:30N 62°19' E 004°47'713.4
2017-Aug-15 21:00N 62°13' E 004°47'713.0
2017-Aug-15 20:30N 62°08' E 004°56'713.8
2017-Aug-15 20:00N 62°03' E 005°06'510.8
2017-Aug-15 19:30N 61°58' E 005°09'4 8.2
2017-Aug-15 19:00N 61°54' E 005°12'917.1
2017-Aug-15 18:30N 61°55' E 005°30'10 0.6
2017-Aug-15 03:26N 61°51' E 005°49'716.0
2017-Aug-15 03:00N 61°54' E 005°36'815.6
2017-Aug-15 02:30N 61°54' E 005°20'3 6.9
2017-Aug-15 02:00N 61°52' E 005°13'4 7.2
2017-Aug-15 01:30N 61°49' E 005°10'815.1
2017-Aug-15 01:00N 61°45' E 004°56'714.4
2017-Aug-15 00:30N 61°38' E 004°59'5 9.9
2017-Aug-15 00:00N 61°33' E 005°00'713.6
2017-Aug-14 23:30N 61°27' E 004°54'714.6
2017-Aug-14 23:00N 61°20' E 004°48'713.5
2017-Aug-14 22:30N 61°14' E 004°55'613.0
2017-Aug-14 22:00N 61°10' E 005°05'713.6
2017-Aug-14 21:30N 61°05' E 005°15'816.0
2017-Aug-14 21:00N 61°05' E 005°32'816.8
2017-Aug-14 20:30N 61°08' E 005°48'917.0
2017-Aug-14 20:00N 61°08' E 006°05'917.2
2017-Aug-14 19:30N 61°06' E 006°23'815.6
2017-Aug-14 19:00N 61°10' E 006°36'816.7
2017-Aug-14 18:30N 61°09' E 006°53'916.9
2017-Aug-14 18:00N 61°01' E 007°02'612.5
2017-Aug-14 17:30N 60°56' E 006°55'1 2.2
2017-Aug-14 17:00N 60°57' E 006°57'4 8.7
2017-Aug-14 16:30N 60°58' E 007°05'612.1
2017-Aug-14 16:00N 60°52' E 007°07'0 0.1
2017-Aug-14 15:30N 60°52' E 007°07'0 0.0
2017-Aug-14 13:06N 60°52' E 007°07'0 0.0
2017-Aug-14 13:00N 60°52' E 007°07'0 0.0
2017-Aug-14 12:30N 60°52' E 007°07'0 0.0
2017-Aug-14 12:00N 60°52' E 007°07'0 0.0
2017-Aug-14 11:30N 60°52' E 007°07'0 0.0
2017-Aug-14 11:00N 60°52' E 007°07'0 0.3
2017-Aug-14 10:30N 60°52' E 007°07'3 5.6
2017-Aug-14 10:00N 60°54' E 007°10'715.2
2017-Aug-14 09:30N 61°01' E 007°02'816.5
2017-Aug-14 09:00N 61°08' E 006°53'816.0
2017-Aug-14 08:30N 61°11' E 006°37'5 9.9
2017-Aug-14 07:59N 61°06' E 006°35'0 0.0
2017-Aug-14 07:30N 61°06' E 006°35'3 5.2
2017-Aug-14 07:00N 61°06' E 006°30'816.0
2017-Aug-14 06:30N 61°07' E 006°13'916.9
2017-Aug-14 05:59N 61°08' E 005°55'816.9
2017-Aug-14 05:30N 61°07' E 005°39'816.8
2017-Aug-14 05:00N 61°04' E 005°22'816.1
2017-Aug-14 04:30N 61°05' E 005°06'817.0
2017-Aug-14 04:00N 61°01' E 004°51'816.1
2017-Aug-14 03:30N 60°54' E 004°41'916.7
2017-Aug-14 02:59N 60°46' E 004°46'4 8.3
2017-Aug-14 02:30N 60°45' E 004°38'4 8.0
2017-Aug-14 02:00N 60°41' E 004°34'815.9
2017-Aug-14 01:30N 60°34' E 004°27'10216.3
2017-Aug-13 19:14N 58°52' E 004°28'417.1
2017-Aug-13 19:00N 58°49' E 004°33'816.7
2017-Aug-13 18:30N 58°43' E 004°45'816.5
2017-Aug-13 18:00N 58°37' E 004°56'917.4
2017-Aug-13 17:30N 58°31' E 005°07'918.8
2017-Aug-13 17:00N 58°25' E 005°20'918.8
2017-Aug-13 16:30N 58°18' E 005°33'1018.9
2017-Aug-13 16:00N 58°12' E 005°47'918.9
2017-Aug-13 15:30N 58°06' E 006°01'918.7
2017-Aug-13 15:00N 57°59' E 006°14'919.0
2017-Aug-13 14:30N 57°53' E 006°27'918.6
2017-Aug-13 14:00N 57°48' E 006°41'918.8
2017-Aug-13 13:30N 57°47' E 006°59'1018.9
2017-Aug-13 13:00N 57°47' E 007°17'1018.9
2017-Aug-13 12:30N 57°46' E 007°34'918.8
2017-Aug-13 12:00N 57°46' E 007°52'918.4
2017-Aug-13 11:30N 57°46' E 008°09'5918.0
2017-Aug-13 08:14N 57°48' E 009°59'418.4
2017-Aug-13 08:00N 57°49' E 010°07'918.3
2017-Aug-13 07:30N 57°50' E 010°24'917.9
2017-Aug-13 07:00N 57°50' E 010°41'611.8
2017-Aug-13 06:29N 57°44' E 010°47'816.3
2017-Aug-13 06:00N 57°36' E 010°45'817.3
2017-Aug-13 05:30N 57°28' E 010°44'917.0
2017-Aug-13 04:59N 57°19' E 010°43'816.5
2017-Aug-13 04:28N 57°11' E 010°45'6516.7
2017-Aug-13 00:35N 56°07' E 011°06'216.6
2017-Aug-13 00:29N 56°05' E 011°06'713.8
2017-Aug-12 23:59N 55°59' E 011°02'917.1
2017-Aug-12 23:29N 55°52' E 010°53'715.0
2017-Aug-12 23:00N 55°45' E 010°48'816.3
2017-Aug-12 22:30N 55°37' E 010°49'917.5
2017-Aug-12 22:00N 55°29' E 010°56'917.1
2017-Aug-12 21:30N 55°21' E 011°03'817.2
2017-Aug-12 21:01N 55°13' E 011°06'917.2
2017-Aug-12 20:31N 55°05' E 011°03'816.4
2017-Aug-12 20:00N 54°57' E 010°58'816.6
2017-Aug-12 19:31N 54°49' E 010°53'816.2
2017-Aug-12 19:01N 54°41' E 010°57'816.5
2017-Aug-12 18:31N 54°37' E 011°08'816.9
2017-Aug-12 18:01N 54°31' E 011°20'917.1
2017-Aug-12 17:30N 54°23' E 011°24'817.0
2017-Aug-12 17:00N 54°15' E 011°18'917.2
2017-Aug-12 16:31N 54°08' E 011°11'7 0.5
2017-Aug-12 03:37N 54°03' E 011°03'212.1
2017-Aug-12 03:29N 54°04' E 011°05'611.9
2017-Aug-12 03:01N 54°08' E 011°12'611.7
2017-Aug-12 02:30N 54°12' E 011°20'611.6
2017-Aug-12 02:00N 54°15' E 011°28'611.6
2017-Aug-12 01:28N 54°18' E 011°37'612.1
2017-Aug-12 01:01N 54°21' E 011°46'713.5
2017-Aug-12 00:30N 54°24' E 011°56'713.5
2017-Aug-12 00:00N 54°26' E 012°07'612.1
2017-Aug-11 23:30N 54°32' E 012°12'811.8
2017-Aug-11 22:50N 54°38' E 012°19'4312.1
2017-Aug-11 19:17N 54°46' E 013°33'3 8.8
2017-Aug-11 18:58N 54°46' E 013°37'4 8.2
2017-Aug-11 18:30N 54°44' E 013°44'4 8.4
2017-Aug-11 18:00N 54°43' E 013°50'4 8.4
2017-Aug-11 17:30N 54°42' E 013°57'4 8.4
2017-Aug-11 17:00N 54°41' E 014°04'4 8.4
2017-Aug-11 16:30N 54°40' E 014°11'4 8.5
2017-Aug-11 16:00N 54°39' E 014°18'4 8.4
2017-Aug-11 15:30N 54°38' E 014°26'4 8.4
2017-Aug-11 15:00N 54°38' E 014°33'4 8.3
2017-Aug-11 14:30N 54°39' E 014°40'8 8.3
2017-Aug-11 13:30N 54°40' E 014°54'4 8.5
2017-Aug-11 13:00N 54°41' E 015°01'4 8.7
2017-Aug-11 12:30N 54°42' E 015°09'5 8.6
2017-Aug-11 11:59N 54°42' E 015°17'6 8.6
2017-Aug-11 11:18N 54°43' E 015°27'10 8.4
2017-Aug-11 10:10N 54°45' E 015°43'2 8.3
2017-Aug-11 09:58N 54°45' E 015°46'4 8.3
2017-Aug-11 09:30N 54°46' E 015°52'4 8.3
2017-Aug-11 09:00N 54°46' E 015°59'4 8.3
2017-Aug-11 08:30N 54°47' E 016°06'4 8.3
2017-Aug-11 08:00N 54°48' E 016°13'4 8.3
2017-Aug-11 07:30N 54°48' E 016°21'4 8.5
2017-Aug-11 07:00N 54°49' E 016°28'4 8.3
2017-Aug-11 06:30N 54°50' E 016°35'4 8.2
2017-Aug-11 06:00N 54°50' E 016°42'4 8.3
2017-Aug-11 05:30N 54°51' E 016°49'4 8.4
2017-Aug-11 05:00N 54°52' E 016°56'4 8.5
2017-Aug-11 04:30N 54°53' E 017°03'4 8.4
2017-Aug-11 04:00N 54°54' E 017°11'4 8.4
2017-Aug-11 03:30N 54°54' E 017°18'4 8.3
2017-Aug-11 03:00N 54°55' E 017°25'4 8.4
2017-Aug-11 02:30N 54°56' E 017°32'4 8.3
2017-Aug-11 02:00N 54°57' E 017°39'4 8.3
2017-Aug-11 01:30N 54°58' E 017°46'4 8.3
2017-Aug-11 01:00N 54°58' E 017°53'4 8.2
2017-Aug-11 00:30N 54°58' E 018°00'4 8.3
2017-Aug-11 00:00N 54°58' E 018°08'4 8.5
2017-Aug-10 23:30N 54°58' E 018°15'4 8.6
2017-Aug-10 23:00N 54°58' E 018°23'4 8.4
2017-Aug-10 22:30N 54°57' E 018°30'4 8.5
2017-Aug-10 22:00N 54°56' E 018°36'4 8.4
2017-Aug-10 21:31N 54°53' E 018°42'4 8.4
2017-Aug-10 21:00N 54°50' E 018°48'4 8.3
2017-Aug-10 20:30N 54°47' E 018°53'4 8.1
2017-Aug-10 20:00N 54°45' E 018°58'4 8.3
2017-Aug-10 19:30N 54°40' E 018°58'4 8.1
2017-Aug-10 19:00N 54°37' E 018°55'4 8.1
2017-Aug-10 18:30N 54°33' E 018°51'4 8.2
2017-Aug-10 18:00N 54°30' E 018°46'4 8.3
2017-Aug-10 17:30N 54°27' E 018°41'3 6.1
2017-Aug-10 17:00N 54°24' E 018°40'0 0.0
2017-Aug-10 16:28N 54°24' E 018°40'0 0.0
2017-Aug-10 15:58N 54°24' E 018°40'0 0.0
2017-Aug-10 15:28N 54°24' E 018°40'0 0.0
2017-Aug-10 14:58N 54°24' E 018°40'0 0.0
2017-Aug-10 14:28N 54°24' E 018°40'0 0.0
2017-Aug-10 13:58N 54°24' E 018°40'0 0.0
2017-Aug-10 13:28N 54°24' E 018°40'0 0.0
2017-Aug-10 12:58N 54°24' E 018°40'0 0.0
2017-Aug-10 12:28N 54°24' E 018°40'0 0.0
2017-Aug-10 11:58N 54°24' E 018°40'0 0.0
2017-Aug-10 11:28N 54°24' E 018°40'0 0.0
2017-Aug-10 10:58N 54°24' E 018°40'0 0.0
2017-Aug-10 10:28N 54°24' E 018°40'0 0.0
2017-Aug-10 09:58N 54°24' E 018°40'0 0.0
2017-Aug-10 09:28N 54°24' E 018°40'0 0.0
2017-Aug-10 08:58N 54°24' E 018°40'0 0.0
2017-Aug-10 08:28N 54°24' E 018°40'0 0.0
2017-Aug-10 07:58N 54°24' E 018°40'0 0.0
2017-Aug-10 07:28N 54°24' E 018°40'0 0.0
2017-Aug-10 06:58N 54°24' E 018°40'0 0.0
2017-Aug-10 06:28N 54°24' E 018°40'0 0.0
2017-Aug-10 05:58N 54°24' E 018°40'0 0.0
2017-Aug-10 05:28N 54°24' E 018°40'0 0.0
2017-Aug-10 04:58N 54°24' E 018°40'1 1.2
2017-Aug-10 04:30N 54°25' E 018°40'3 6.4
2017-Aug-10 04:01N 54°28' E 018°41'713.0
2017-Aug-10 03:30N 54°33' E 018°49'713.9
2017-Aug-10 03:00N 54°39' E 018°55'713.9
2017-Aug-10 02:30N 54°45' E 018°58'714.2
2017-Aug-10 02:01N 54°52' E 018°59'714.5
2017-Aug-10 01:31N 54°60' E 019°01'714.7
2017-Aug-10 01:01N 55°07' E 019°02'714.7
2017-Aug-10 00:31N 55°14' E 019°03'714.6
2017-Aug-10 00:01N 55°22' E 019°04'815.0
2017-Aug-09 23:31N 55°29' E 019°05'815.7
2017-Aug-09 23:01N 55°37' E 019°06'815.7
2017-Aug-09 22:31N 55°45' E 019°08'815.6
2017-Aug-09 22:01N 55°52' E 019°09'815.7
2017-Aug-09 21:31N 56°00' E 019°10'815.7
2017-Aug-09 21:01N 56°08' E 019°12'815.6
2017-Aug-09 20:31N 56°16' E 019°13'816.2
2017-Aug-09 20:01N 56°24' E 019°15'917.0
2017-Aug-09 19:31N 56°32' E 019°16'917.0
2017-Aug-09 19:00N 56°41' E 019°17'6816.9
2017-Aug-09 14:56N 57°49' E 019°29'816.9
2017-Aug-09 14:29N 57°57' E 019°30'715.7
2017-Aug-09 14:00N 58°04' E 019°30'713.6
2017-Aug-09 13:30N 58°11' E 019°29'713.7
2017-Aug-09 13:00N 58°18' E 019°28'713.5
2017-Aug-09 12:30N 58°25' E 019°28'713.2
2017-Aug-09 12:00N 58°31' E 019°27'713.0
2017-Aug-09 11:30N 58°38' E 019°26'612.9
2017-Aug-09 11:00N 58°44' E 019°24'713.1
2017-Aug-09 10:30N 58°51' E 019°21'713.3
2017-Aug-09 10:00N 58°57' E 019°18'815.6
2017-Aug-09 09:31N 59°05' E 019°14'816.0
2017-Aug-09 09:00N 59°12' E 019°09'611.8
2017-Aug-09 08:30N 59°16' E 018°60'510.5
2017-Aug-09 08:00N 59°18' E 018°51'713.2
2017-Aug-09 07:31N 59°23' E 018°41'611.1
2017-Aug-09 07:01N 59°25' E 018°31'3 6.4
2017-Aug-09 06:31N 59°25' E 018°25'3 6.6
2017-Aug-09 06:00N 59°22' E 018°24'510.4
2017-Aug-09 05:30N 59°21' E 018°14'5 9.1
2017-Aug-09 05:00N 59°19' E 018°06'0 0.9
2017-Aug-09 04:30N 59°19' E 018°05'0 0.0
2017-Aug-09 04:00N 59°19' E 018°05'0 0.0
2017-Aug-09 03:30N 59°19' E 018°05'0 0.0
2017-Aug-09 03:00N 59°19' E 018°05'0 0.0
2017-Aug-09 02:30N 59°19' E 018°05'0 0.0
2017-Aug-09 02:00N 59°19' E 018°05'0 0.0
2017-Aug-09 01:30N 59°19' E 018°05'0 0.0
2017-Aug-09 01:00N 59°19' E 018°05'0 0.0
2017-Aug-09 00:30N 59°19' E 018°05'0 0.0
2017-Aug-09 00:00N 59°19' E 018°05'0 0.0
2017-Aug-08 23:27N 59°19' E 018°05'0 0.0
2017-Aug-08 23:00N 59°19' E 018°05'0 0.0
2017-Aug-08 22:30N 59°19' E 018°05'0 0.0
2017-Aug-08 22:00N 59°19' E 018°05'0 0.0
2017-Aug-08 21:30N 59°19' E 018°05'0 0.0
2017-Aug-08 21:00N 59°19' E 018°05'0 0.0
2017-Aug-08 20:30N 59°19' E 018°05'0 0.0
2017-Aug-08 20:00N 59°19' E 018°05'0 0.0
2017-Aug-08 19:30N 59°19' E 018°05'0 0.0
2017-Aug-08 19:00N 59°19' E 018°05'0 0.0
2017-Aug-08 18:30N 59°19' E 018°05'0 0.0
2017-Aug-08 17:57N 59°19' E 018°05'0 0.0
2017-Aug-08 17:30N 59°19' E 018°05'0 0.0
2017-Aug-08 17:00N 59°19' E 018°05'0 0.0
2017-Aug-08 16:30N 59°19' E 018°05'0 0.0
2017-Aug-08 16:00N 59°19' E 018°05'0 0.0
2017-Aug-08 15:30N 59°19' E 018°05'0 0.0
2017-Aug-08 14:57N 59°19' E 018°05'0 0.0
2017-Aug-08 14:30N 59°19' E 018°05'0 0.0
2017-Aug-08 14:00N 59°19' E 018°05'0 0.0
2017-Aug-08 13:30N 59°19' E 018°05'0 0.0
2017-Aug-08 13:00N 59°19' E 018°05'0 0.0
2017-Aug-08 12:27N 59°19' E 018°05'0 0.0
2017-Aug-08 12:00N 59°19' E 018°05'0 0.0
2017-Aug-08 11:30N 59°19' E 018°05'0 0.0
2017-Aug-08 11:00N 59°19' E 018°05'0 0.0
2017-Aug-08 10:30N 59°19' E 018°05'0 0.0
2017-Aug-08 10:00N 59°19' E 018°05'0 0.0
2017-Aug-08 09:30N 59°19' E 018°05'0 0.0
2017-Aug-08 09:00N 59°19' E 018°05'0 0.0
2017-Aug-08 08:30N 59°19' E 018°05'0 0.0
2017-Aug-08 08:00N 59°19' E 018°05'0 0.0
2017-Aug-08 07:30N 59°19' E 018°05'0 0.0
2017-Aug-08 07:00N 59°19' E 018°05'2 4.3
2017-Aug-08 06:30N 59°19' E 018°09'511.0
2017-Aug-08 06:00N 59°23' E 018°17'5 9.8
2017-Aug-08 05:31N 59°22' E 018°27'5 9.3
2017-Aug-08 05:01N 59°27' E 018°24'612.0
2017-Aug-08 04:31N 59°23' E 018°34'611.9
2017-Aug-08 04:00N 59°22' E 018°46'612.6
2017-Aug-08 03:31N 59°17' E 018°54'612.7
2017-Aug-08 03:00N 59°14' E 019°05'714.8
2017-Aug-08 02:30N 59°15' E 019°19'917.1
2017-Aug-08 02:00N 59°16' E 019°36'917.1
2017-Aug-08 01:30N 59°17' E 019°52'817.0
2017-Aug-08 01:00N 59°18' E 020°09'816.9
2017-Aug-08 00:31N 59°19' E 020°25'816.8
2017-Aug-08 00:01N 59°21' E 020°41'816.7
2017-Aug-07 23:30N 59°22' E 020°58'816.8
2017-Aug-07 23:01N 59°23' E 021°14'816.7
2017-Aug-07 22:30N 59°24' E 021°30'816.6
2017-Aug-07 22:00N 59°25' E 021°46'816.6
2017-Aug-07 21:30N 59°26' E 022°03'816.6
2017-Aug-07 21:00N 59°27' E 022°19'917.1
2017-Aug-07 20:30N 59°32' E 022°33'1019.4
2017-Aug-07 20:01N 59°34' E 022°51'713.8
2017-Aug-07 19:30N 59°36' E 023°04'816.9
2017-Aug-07 19:00N 59°39' E 023°20'816.9
2017-Aug-07 18:30N 59°41' E 023°36'816.8
2017-Aug-07 18:00N 59°44' E 023°52'816.6
2017-Aug-07 17:31N 59°47' E 024°08'816.6
2017-Aug-07 17:00N 59°50' E 024°23'816.6
2017-Aug-07 16:30N 59°54' E 024°37'816.9
2017-Aug-07 16:01N 59°58' E 024°52'715.0
2017-Aug-07 15:31N 60°05' E 024°59'5 9.7
2017-Aug-07 15:00N 60°10' E 024°58'0 0.6
2017-Aug-07 14:28N 60°10' E 024°58'0 0.0
2017-Aug-07 13:58N 60°10' E 024°58'0 0.0
2017-Aug-07 13:28N 60°10' E 024°58'0 0.0
2017-Aug-07 12:58N 60°10' E 024°58'0 0.0
2017-Aug-07 12:28N 60°10' E 024°58'0 0.0
2017-Aug-07 11:58N 60°10' E 024°58'0 0.0
2017-Aug-07 11:25N 60°10' E 024°58'0 0.0
2017-Aug-07 10:58N 60°10' E 024°58'0 0.0
2017-Aug-07 10:28N 60°10' E 024°58'0 0.0
2017-Aug-07 09:58N 60°10' E 024°58'0 0.0
2017-Aug-07 09:28N 60°10' E 024°58'0 0.0
2017-Aug-07 08:58N 60°10' E 024°58'0 0.0
2017-Aug-07 08:28N 60°10' E 024°58'1 1.8
2017-Aug-07 08:01N 60°10' E 024°59'510.5
2017-Aug-07 07:30N 60°04' E 024°58'611.2
2017-Aug-07 07:00N 59°59' E 024°57'510.4
2017-Aug-07 06:31N 59°56' E 025°06'611.0
2017-Aug-07 06:00N 59°56' E 025°17'510.9
2017-Aug-07 05:30N 59°56' E 025°27'611.5
2017-Aug-07 05:01N 59°55' E 025°39'611.8
2017-Aug-07 04:31N 59°56' E 025°51'611.8
2017-Aug-07 04:00N 59°57' E 026°02'611.6
2017-Aug-07 03:30N 59°59' E 026°13'  
Track history (hours):
 
Tides and Currents Weather Stations Pressure Air Temp Water Temp Dewpoint Dewpoint Depression Visibility Wind Speed Wind Dir Waves Ship Positions

Europa

Operator: Hapag-Lloyd Container Line

Last reported at 2017-Aug-17 03:30 UTC. Time now 2017-Aug-17 03:36 UTC.
Position N 64°31' E 010°11'.

Length 199 m; draft 6.2 m.

Type: Passenger vessel. MMSI: 308007000.

Date/timePositionNaut miles runAvg speedWind from/ knotsBaromVisibWave heightAir tempDewpointWater temp
2017-Aug-17 03:30N 64°31' E 010°11'612.0
2017-Aug-17 03:00N 64°26' E 010°04'611.8
2017-Aug-17 02:30N 64°21' E 009°55'611.9
2017-Aug-17 02:00N 64°16' E 009°48'611.4
2017-Aug-17 01:30N 64°11' E 009°41'612.1
2017-Aug-17 00:59N 64°06' E 009°34'611.7
2017-Aug-17 00:30N 64°01' E 009°28'612.0
2017-Aug-17 00:00N 63°55' E 009°22'612.9
2017-Aug-16 23:31N 63°50' E 009°16'713.6
2017-Aug-16 23:00N 63°43' E 009°14'816.1
2017-Aug-16 22:30N 63°35' E 009°16'815.3
2017-Aug-16 22:00N 63°29' E 009°03'816.7
2017-Aug-16 21:30N 63°26' E 008°46'917.1
2017-Aug-16 21:00N 63°23' E 008°28'817.0
2017-Aug-16 20:30N 63°18' E 008°14'917.4
2017-Aug-16 20:00N 63°13' E 007°57'816.9
2017-Aug-16 19:30N 63°09' E 007°41'714.1
2017-Aug-16 19:01N 63°05' E 007°28'713.4
2017-Aug-16 18:30N 63°03' E 007°14'713.6
2017-Aug-16 18:00N 63°01' E 006°60'713.6
2017-Aug-16 17:30N 62°57' E 006°48'815.1
2017-Aug-16 17:00N 62°51' E 006°59'816.2
2017-Aug-16 16:30N 62°43' E 006°59'611.1
2017-Aug-16 16:00N 62°44' E 007°11'0 0.1
2017-Aug-16 15:28N 62°44' E 007°11'0 0.0
2017-Aug-16 14:58N 62°44' E 007°11'0 0.0
2017-Aug-16 14:28N 62°44' E 007°11'0 0.0
2017-Aug-16 13:58N 62°44' E 007°11'0 0.0
2017-Aug-16 13:28N 62°44' E 007°11'0 0.0
2017-Aug-16 12:58N 62°44' E 007°11'0 0.0
2017-Aug-16 12:28N 62°44' E 007°11'0 0.0
2017-Aug-16 11:58N 62°44' E 007°11'0 0.0
2017-Aug-16 11:28N 62°44' E 007°11'0 0.0
2017-Aug-16 11:00N 62°44' E 007°11'0 0.6
2017-Aug-16 10:30N 62°44' E 007°11'4 7.8
2017-Aug-16 10:00N 62°41' E 007°06'816.3
2017-Aug-16 09:30N 62°37' E 007°22'815.1
2017-Aug-16 08:59N 62°34' E 007°37'2 4.5
2017-Aug-16 08:30N 62°34' E 007°42'0 0.0
2017-Aug-16 07:56N 62°34' E 007°42'0 0.0
2017-Aug-16 07:26N 62°34' E 007°42'0 0.0
2017-Aug-16 06:59N 62°34' E 007°42'0 0.0
2017-Aug-16 06:26N 62°34' E 007°42'0 0.0
2017-Aug-16 06:00N 62°34' E 007°42'0 0.7
2017-Aug-16 05:28N 62°34' E 007°41'510.2
2017-Aug-16 04:56N 62°33' E 007°29'613.6
2017-Aug-16 04:30N 62°37' E 007°20'713.5
2017-Aug-16 04:00N 62°40' E 007°06'612.7
2017-Aug-16 03:30N 62°41' E 006°53'612.9
2017-Aug-16 03:00N 62°39' E 006°40'713.2
2017-Aug-16 02:30N 62°38' E 006°26'713.1
2017-Aug-16 02:00N 62°38' E 006°11'3 6.8
2017-Aug-16 01:30N 62°35' E 006°10'612.1
2017-Aug-16 01:00N 62°29' E 006°07'611.9
2017-Aug-16 00:30N 62°27' E 005°55'612.8
2017-Aug-16 00:00N 62°30' E 005°43'612.7
2017-Aug-15 23:30N 62°30' E 005°29'612.8
2017-Aug-15 23:00N 62°30' E 005°15'713.3
2017-Aug-15 22:30N 62°30' E 005°01'712.3
2017-Aug-15 21:57N 62°25' E 004°51'612.8
2017-Aug-15 21:30N 62°19' E 004°47'713.4
2017-Aug-15 21:00N 62°13' E 004°47'713.0
2017-Aug-15 20:30N 62°08' E 004°56'713.8
2017-Aug-15 20:00N 62°03' E 005°06'510.8
2017-Aug-15 19:30N 61°58' E 005°09'4 8.2
2017-Aug-15 19:00N 61°54' E 005°12'917.1
2017-Aug-15 18:30N 61°55' E 005°30'10 0.6
2017-Aug-15 03:26N 61°51' E 005°49'716.0
2017-Aug-15 03:00N 61°54' E 005°36'815.6
2017-Aug-15 02:30N 61°54' E 005°20'3 6.9
2017-Aug-15 02:00N 61°52' E 005°13'4 7.2
2017-Aug-15 01:30N 61°49' E 005°10'815.1
2017-Aug-15 01:00N 61°45' E 004°56'714.4
2017-Aug-15 00:30N 61°38' E 004°59'5 9.9
2017-Aug-15 00:00N 61°33' E 005°00'713.6
2017-Aug-14 23:30N 61°27' E 004°54'714.6
2017-Aug-14 23:00N 61°20' E 004°48'713.5
2017-Aug-14 22:30N 61°14' E 004°55'613.0
2017-Aug-14 22:00N 61°10' E 005°05'713.6
2017-Aug-14 21:30N 61°05' E 005°15'816.0
2017-Aug-14 21:00N 61°05' E 005°32'816.8
2017-Aug-14 20:30N 61°08' E 005°48'917.0
2017-Aug-14 20:00N 61°08' E 006°05'917.2
2017-Aug-14 19:30N 61°06' E 006°23'815.6
2017-Aug-14 19:00N 61°10' E 006°36'816.7
2017-Aug-14 18:30N 61°09' E 006°53'916.9
2017-Aug-14 18:00N 61°01' E 007°02'612.5
2017-Aug-14 17:30N 60°56' E 006°55'1 2.2
2017-Aug-14 17:00N 60°57' E 006°57'4 8.7
2017-Aug-14 16:30N 60°58' E 007°05'612.1
2017-Aug-14 16:00N 60°52' E 007°07'0 0.1
2017-Aug-14 15:30N 60°52' E 007°07'0 0.0
2017-Aug-14 13:06N 60°52' E 007°07'0 0.0
2017-Aug-14 13:00N 60°52' E 007°07'0 0.0
2017-Aug-14 12:30N 60°52' E 007°07'0 0.0
2017-Aug-14 12:00N 60°52' E 007°07'0 0.0
2017-Aug-14 11:30N 60°52' E 007°07'0 0.0
2017-Aug-14 11:00N 60°52' E 007°07'0 0.3
2017-Aug-14 10:30N 60°52' E 007°07'3 5.6
2017-Aug-14 10:00N 60°54' E 007°10'715.2
2017-Aug-14 09:30N 61°01' E 007°02'816.5
2017-Aug-14 09:00N 61°08' E 006°53'816.0
2017-Aug-14 08:30N 61°11' E 006°37'5 9.9
2017-Aug-14 07:59N 61°06' E 006°35'0 0.0
2017-Aug-14 07:30N 61°06' E 006°35'3 5.2
2017-Aug-14 07:00N 61°06' E 006°30'816.0
2017-Aug-14 06:30N 61°07' E 006°13'916.9
2017-Aug-14 05:59N 61°08' E 005°55'816.9
2017-Aug-14 05:30N 61°07' E 005°39'816.8
2017-Aug-14 05:00N 61°04' E 005°22'816.1
2017-Aug-14 04:30N 61°05' E 005°06'817.0
2017-Aug-14 04:00N 61°01' E 004°51'816.1
2017-Aug-14 03:30N 60°54' E 004°41'916.7
2017-Aug-14 02:59N 60°46' E 004°46'4 8.3
2017-Aug-14 02:30N 60°45' E 004°38'4 8.0
2017-Aug-14 02:00N 60°41' E 004°34'815.9
2017-Aug-14 01:30N 60°34' E 004°27'10216.3
2017-Aug-13 19:14N 58°52' E 004°28'417.1
2017-Aug-13 19:00N 58°49' E 004°33'816.7
2017-Aug-13 18:30N 58°43' E 004°45'816.5
2017-Aug-13 18:00N 58°37' E 004°56'917.4
2017-Aug-13 17:30N 58°31' E 005°07'918.8
2017-Aug-13 17:00N 58°25' E 005°20'918.8
2017-Aug-13 16:30N 58°18' E 005°33'1018.9
2017-Aug-13 16:00N 58°12' E 005°47'918.9
2017-Aug-13 15:30N 58°06' E 006°01'918.7
2017-Aug-13 15:00N 57°59' E 006°14'919.0
2017-Aug-13 14:30N 57°53' E 006°27'918.6
2017-Aug-13 14:00N 57°48' E 006°41'918.8
2017-Aug-13 13:30N 57°47' E 006°59'1018.9
2017-Aug-13 13:00N 57°47' E 007°17'1018.9
2017-Aug-13 12:30N 57°46' E 007°34'918.8
2017-Aug-13 12:00N 57°46' E 007°52'918.4
2017-Aug-13 11:30N 57°46' E 008°09'5918.0
2017-Aug-13 08:14N 57°48' E 009°59'418.4
2017-Aug-13 08:00N 57°49' E 010°07'918.3
2017-Aug-13 07:30N 57°50' E 010°24'917.9
2017-Aug-13 07:00N 57°50' E 010°41'611.8
2017-Aug-13 06:29N 57°44' E 010°47'816.3
2017-Aug-13 06:00N 57°36' E 010°45'817.3
2017-Aug-13 05:30N 57°28' E 010°44'917.0
2017-Aug-13 04:59N 57°19' E 010°43'816.5
2017-Aug-13 04:28N 57°11' E 010°45'6516.7
2017-Aug-13 00:35N 56°07' E 011°06'216.6
2017-Aug-13 00:29N 56°05' E 011°06'713.8
2017-Aug-12 23:59N 55°59' E 011°02'917.1
2017-Aug-12 23:29N 55°52' E 010°53'715.0
2017-Aug-12 23:00N 55°45' E 010°48'816.3
2017-Aug-12 22:30N 55°37' E 010°49'917.5
2017-Aug-12 22:00N 55°29' E 010°56'917.1
2017-Aug-12 21:30N 55°21' E 011°03'817.2
2017-Aug-12 21:01N 55°13' E 011°06'917.2
2017-Aug-12 20:31N 55°05' E 011°03'816.4
2017-Aug-12 20:00N 54°57' E 010°58'816.6
2017-Aug-12 19:31N 54°49' E 010°53'816.2
2017-Aug-12 19:01N 54°41' E 010°57'816.5
2017-Aug-12 18:31N 54°37' E 011°08'816.9
2017-Aug-12 18:01N 54°31' E 011°20'917.1
2017-Aug-12 17:30N 54°23' E 011°24'817.0
2017-Aug-12 17:00N 54°15' E 011°18'917.2
2017-Aug-12 16:31N 54°08' E 011°11'7 0.5
2017-Aug-12 03:37N 54°03' E 011°03'212.1
2017-Aug-12 03:29N 54°04' E 011°05'611.9
2017-Aug-12 03:01N 54°08' E 011°12'611.7
2017-Aug-12 02:30N 54°12' E 011°20'611.6
2017-Aug-12 02:00N 54°15' E 011°28'611.6
2017-Aug-12 01:28N 54°18' E 011°37'612.1
2017-Aug-12 01:01N 54°21' E 011°46'713.5
2017-Aug-12 00:30N 54°24' E 011°56'713.5
2017-Aug-12 00:00N 54°26' E 012°07'612.1
2017-Aug-11 23:30N 54°32' E 012°12'811.8
2017-Aug-11 22:50N 54°38' E 012°19'4312.1
2017-Aug-11 19:17N 54°46' E 013°33'3 8.8
2017-Aug-11 18:58N 54°46' E 013°37'4 8.2
2017-Aug-11 18:30N 54°44' E 013°44'4 8.4
2017-Aug-11 18:00N 54°43' E 013°50'4 8.4
2017-Aug-11 17:30N 54°42' E 013°57'4 8.4
2017-Aug-11 17:00N 54°41' E 014°04'4 8.4
2017-Aug-11 16:30N 54°40' E 014°11'4 8.5
2017-Aug-11 16:00N 54°39' E 014°18'4 8.4
2017-Aug-11 15:30N 54°38' E 014°26'4 8.4
2017-Aug-11 15:00N 54°38' E 014°33'4 8.3
2017-Aug-11 14:30N 54°39' E 014°40'8 8.3
2017-Aug-11 13:30N 54°40' E 014°54'4 8.5
2017-Aug-11 13:00N 54°41' E 015°01'4 8.7
2017-Aug-11 12:30N 54°42' E 015°09'5 8.6
2017-Aug-11 11:59N 54°42' E 015°17'6 8.6
2017-Aug-11 11:18N 54°43' E 015°27'10 8.4
2017-Aug-11 10:10N 54°45' E 015°43'2 8.3
2017-Aug-11 09:58N 54°45' E 015°46'4 8.3
2017-Aug-11 09:30N 54°46' E 015°52'4 8.3
2017-Aug-11 09:00N 54°46' E 015°59'4 8.3
2017-Aug-11 08:30N 54°47' E 016°06'4 8.3
2017-Aug-11 08:00N 54°48' E 016°13'4 8.3
2017-Aug-11 07:30N 54°48' E 016°21'4 8.5
2017-Aug-11 07:00N 54°49' E 016°28'4 8.3
2017-Aug-11 06:30N 54°50' E 016°35'4 8.2
2017-Aug-11 06:00N 54°50' E 016°42'4 8.3
2017-Aug-11 05:30N 54°51' E 016°49'4 8.4
2017-Aug-11 05:00N 54°52' E 016°56'4 8.5
2017-Aug-11 04:30N 54°53' E 017°03'4 8.4
2017-Aug-11 04:00N 54°54' E 017°11'4 8.4
2017-Aug-11 03:30N 54°54' E 017°18'4 8.3
2017-Aug-11 03:00N 54°55' E 017°25'4 8.4
2017-Aug-11 02:30N 54°56' E 017°32'4 8.3
2017-Aug-11 02:00N 54°57' E 017°39'4 8.3
2017-Aug-11 01:30N 54°58' E 017°46'4 8.3
2017-Aug-11 01:00N 54°58' E 017°53'4 8.2
2017-Aug-11 00:30N 54°58' E 018°00'4 8.3
2017-Aug-11 00:00N 54°58' E 018°08'4 8.5
2017-Aug-10 23:30N 54°58' E 018°15'4 8.6
2017-Aug-10 23:00N 54°58' E 018°23'4 8.4
2017-Aug-10 22:30N 54°57' E 018°30'4 8.5
2017-Aug-10 22:00N 54°56' E 018°36'4 8.4
2017-Aug-10 21:31N 54°53' E 018°42'4 8.4
2017-Aug-10 21:00N 54°50' E 018°48'4 8.3
2017-Aug-10 20:30N 54°47' E 018°53'4 8.1
2017-Aug-10 20:00N 54°45' E 018°58'4 8.3
2017-Aug-10 19:30N 54°40' E 018°58'4 8.1
2017-Aug-10 19:00N 54°37' E 018°55'4 8.1
2017-Aug-10 18:30N 54°33' E 018°51'4 8.2
2017-Aug-10 18:00N 54°30' E 018°46'4 8.3
2017-Aug-10 17:30N 54°27' E 018°41'3 6.1
2017-Aug-10 17:00N 54°24' E 018°40'0 0.0
2017-Aug-10 16:28N 54°24' E 018°40'0 0.0
2017-Aug-10 15:58N 54°24' E 018°40'0 0.0
2017-Aug-10 15:28N 54°24' E 018°40'0 0.0
2017-Aug-10 14:58N 54°24' E 018°40'0 0.0
2017-Aug-10 14:28N 54°24' E 018°40'0 0.0
2017-Aug-10 13:58N 54°24' E 018°40'0 0.0
2017-Aug-10 13:28N 54°24' E 018°40'0 0.0
2017-Aug-10 12:58N 54°24' E 018°40'0 0.0
2017-Aug-10 12:28N 54°24' E 018°40'0 0.0
2017-Aug-10 11:58N 54°24' E 018°40'0 0.0
2017-Aug-10 11:28N 54°24' E 018°40'0 0.0
2017-Aug-10 10:58N 54°24' E 018°40'0 0.0
2017-Aug-10 10:28N 54°24' E 018°40'0 0.0
2017-Aug-10 09:58N 54°24' E 018°40'0 0.0
2017-Aug-10 09:28N 54°24' E 018°40'0 0.0
2017-Aug-10 08:58N 54°24' E 018°40'0 0.0
2017-Aug-10 08:28N 54°24' E 018°40'0 0.0
2017-Aug-10 07:58N 54°24' E 018°40'0 0.0
2017-Aug-10 07:28N 54°24' E 018°40'0 0.0
2017-Aug-10 06:58N 54°24' E 018°40'0 0.0
2017-Aug-10 06:28N 54°24' E 018°40'0 0.0
2017-Aug-10 05:58N 54°24' E 018°40'0 0.0
2017-Aug-10 05:28N 54°24' E 018°40'0 0.0
2017-Aug-10 04:58N 54°24' E 018°40'1 1.2
2017-Aug-10 04:30N 54°25' E 018°40'3 6.4
2017-Aug-10 04:01N 54°28' E 018°41'713.0
2017-Aug-10 03:30N 54°33' E 018°49'713.9
2017-Aug-10 03:00N 54°39' E 018°55'713.9
2017-Aug-10 02:30N 54°45' E 018°58'714.2
2017-Aug-10 02:01N 54°52' E 018°59'714.5
2017-Aug-10 01:31N 54°60' E 019°01'714.7
2017-Aug-10 01:01N 55°07' E 019°02'714.7
2017-Aug-10 00:31N 55°14' E 019°03'714.6
2017-Aug-10 00:01N 55°22' E 019°04'815.0
2017-Aug-09 23:31N 55°29' E 019°05'815.7
2017-Aug-09 23:01N 55°37' E 019°06'815.7
2017-Aug-09 22:31N 55°45' E 019°08'815.6
2017-Aug-09 22:01N 55°52' E 019°09'815.7
2017-Aug-09 21:31N 56°00' E 019°10'815.7
2017-Aug-09 21:01N 56°08' E 019°12'815.6
2017-Aug-09 20:31N 56°16' E 019°13'816.2
2017-Aug-09 20:01N 56°24' E 019°15'917.0
2017-Aug-09 19:31N 56°32' E 019°16'917.0
2017-Aug-09 19:00N 56°41' E 019°17'6816.9
2017-Aug-09 14:56N 57°49' E 019°29'816.9
2017-Aug-09 14:29N 57°57' E 019°30'715.7
2017-Aug-09 14:00N 58°04' E 019°30'713.6
2017-Aug-09 13:30N 58°11' E 019°29'713.7
2017-Aug-09 13:00N 58°18' E 019°28'713.5
2017-Aug-09 12:30N 58°25' E 019°28'713.2
2017-Aug-09 12:00N 58°31' E 019°27'713.0
2017-Aug-09 11:30N 58°38' E 019°26'612.9
2017-Aug-09 11:00N 58°44' E 019°24'713.1
2017-Aug-09 10:30N 58°51' E 019°21'713.3
2017-Aug-09 10:00N 58°57' E 019°18'815.6
2017-Aug-09 09:31N 59°05' E 019°14'816.0
2017-Aug-09 09:00N 59°12' E 019°09'611.8
2017-Aug-09 08:30N 59°16' E 018°60'510.5
2017-Aug-09 08:00N 59°18' E 018°51'713.2
2017-Aug-09 07:31N 59°23' E 018°41'611.1
2017-Aug-09 07:01N 59°25' E 018°31'3 6.4
2017-Aug-09 06:31N 59°25' E 018°25'3 6.6
2017-Aug-09 06:00N 59°22' E 018°24'510.4
2017-Aug-09 05:30N 59°21' E 018°14'5 9.1
2017-Aug-09 05:00N 59°19' E 018°06'0 0.9
2017-Aug-09 04:30N 59°19' E 018°05'0 0.0
2017-Aug-09 04:00N 59°19' E 018°05'0 0.0
2017-Aug-09 03:30N 59°19' E 018°05'0 0.0
2017-Aug-09 03:00N 59°19' E 018°05'0 0.0
2017-Aug-09 02:30N 59°19' E 018°05'0 0.0
2017-Aug-09 02:00N 59°19' E 018°05'0 0.0
2017-Aug-09 01:30N 59°19' E 018°05'0 0.0
2017-Aug-09 01:00N 59°19' E 018°05'0 0.0
2017-Aug-09 00:30N 59°19' E 018°05'0 0.0
2017-Aug-09 00:00N 59°19' E 018°05'0 0.0
2017-Aug-08 23:27N 59°19' E 018°05'0 0.0
2017-Aug-08 23:00N 59°19' E 018°05'0 0.0
2017-Aug-08 22:30N 59°19' E 018°05'0 0.0
2017-Aug-08 22:00N 59°19' E 018°05'0 0.0
2017-Aug-08 21:30N 59°19' E 018°05'0 0.0
2017-Aug-08 21:00N 59°19' E 018°05'0 0.0
2017-Aug-08 20:30N 59°19' E 018°05'0 0.0
2017-Aug-08 20:00N 59°19' E 018°05'0 0.0
2017-Aug-08 19:30N 59°19' E 018°05'0 0.0
2017-Aug-08 19:00N 59°19' E 018°05'0 0.0
2017-Aug-08 18:30N 59°19' E 018°05'0 0.0
2017-Aug-08 17:57N 59°19' E 018°05'0 0.0
2017-Aug-08 17:30N 59°19' E 018°05'0 0.0
2017-Aug-08 17:00N 59°19' E 018°05'0 0.0
2017-Aug-08 16:30N 59°19' E 018°05'0 0.0
2017-Aug-08 16:00N 59°19' E 018°05'0 0.0
2017-Aug-08 15:30N 59°19' E 018°05'0 0.0
2017-Aug-08 14:57N 59°19' E 018°05'0 0.0
2017-Aug-08 14:30N 59°19' E 018°05'0 0.0
2017-Aug-08 14:00N 59°19' E 018°05'0 0.0
2017-Aug-08 13:30N 59°19' E 018°05'0 0.0
2017-Aug-08 13:00N 59°19' E 018°05'0 0.0
2017-Aug-08 12:27N 59°19' E 018°05'0 0.0
2017-Aug-08 12:00N 59°19' E 018°05'0 0.0
2017-Aug-08 11:30N 59°19' E 018°05'0 0.0
2017-Aug-08 11:00N 59°19' E 018°05'0 0.0
2017-Aug-08 10:30N 59°19' E 018°05'0 0.0
2017-Aug-08 10:00N 59°19' E 018°05'0 0.0
2017-Aug-08 09:30N 59°19' E 018°05'0 0.0
2017-Aug-08 09:00N 59°19' E 018°05'0 0.0
2017-Aug-08 08:30N 59°19' E 018°05'0 0.0
2017-Aug-08 08:00N 59°19' E 018°05'0 0.0
2017-Aug-08 07:30N 59°19' E 018°05'0 0.0
2017-Aug-08 07:00N 59°19' E 018°05'2 4.3
2017-Aug-08 06:30N 59°19' E 018°09'511.0
2017-Aug-08 06:00N 59°23' E 018°17'5 9.8
2017-Aug-08 05:31N 59°22' E 018°27'5 9.3
2017-Aug-08 05:01N 59°27' E 018°24'612.0
2017-Aug-08 04:31N 59°23' E 018°34'611.9
2017-Aug-08 04:00N 59°22' E 018°46'612.6
2017-Aug-08 03:31N 59°17' E 018°54'612.7
2017-Aug-08 03:00N 59°14' E 019°05'714.8
2017-Aug-08 02:30N 59°15' E 019°19'917.1
2017-Aug-08 02:00N 59°16' E 019°36'917.1
2017-Aug-08 01:30N 59°17' E 019°52'817.0
2017-Aug-08 01:00N 59°18' E 020°09'816.9
2017-Aug-08 00:31N 59°19' E 020°25'816.8
2017-Aug-08 00:01N 59°21' E 020°41'816.7
2017-Aug-07 23:30N 59°22' E 020°58'816.8
2017-Aug-07 23:01N 59°23' E 021°14'816.7
2017-Aug-07 22:30N 59°24' E 021°30'816.6
2017-Aug-07 22:00N 59°25' E 021°46'816.6
2017-Aug-07 21:30N 59°26' E 022°03'816.6
2017-Aug-07 21:00N 59°27' E 022°19'917.1
2017-Aug-07 20:30N 59°32' E 022°33'1019.4
2017-Aug-07 20:01N 59°34' E 022°51'713.8
2017-Aug-07 19:30N 59°36' E 023°04'816.9
2017-Aug-07 19:00N 59°39' E 023°20'816.9
2017-Aug-07 18:30N 59°41' E 023°36'816.8
2017-Aug-07 18:00N 59°44' E 023°52'816.6
2017-Aug-07 17:31N 59°47' E 024°08'816.6
2017-Aug-07 17:00N 59°50' E 024°23'816.6
2017-Aug-07 16:30N 59°54' E 024°37'816.9
2017-Aug-07 16:01N 59°58' E 024°52'715.0
2017-Aug-07 15:31N 60°05' E 024°59'5 9.7
2017-Aug-07 15:00N 60°10' E 024°58'0 0.6
2017-Aug-07 14:28N 60°10' E 024°58'0 0.0
2017-Aug-07 13:58N 60°10' E 024°58'0 0.0
2017-Aug-07 13:28N 60°10' E 024°58'0 0.0
2017-Aug-07 12:58N 60°10' E 024°58'0 0.0
2017-Aug-07 12:28N 60°10' E 024°58'0 0.0
2017-Aug-07 11:58N 60°10' E 024°58'0 0.0
2017-Aug-07 11:25N 60°10' E 024°58'0 0.0
2017-Aug-07 10:58N 60°10' E 024°58'0 0.0
2017-Aug-07 10:28N 60°10' E 024°58'0 0.0
2017-Aug-07 09:58N 60°10' E 024°58'0 0.0
2017-Aug-07 09:28N 60°10' E 024°58'0 0.0
2017-Aug-07 08:58N 60°10' E 024°58'0 0.0
2017-Aug-07 08:28N 60°10' E 024°58'1 1.8
2017-Aug-07 08:01N 60°10' E 024°59'510.5
2017-Aug-07 07:30N 60°04' E 024°58'611.2
2017-Aug-07 07:00N 59°59' E 024°57'510.4
2017-Aug-07 06:31N 59°56' E 025°06'611.0
2017-Aug-07 06:00N 59°56' E 025°17'510.9
2017-Aug-07 05:30N 59°56' E 025°27'611.5
2017-Aug-07 05:01N 59°55' E 025°39'611.8
2017-Aug-07 04:31N 59°56' E 025°51'611.8
2017-Aug-07 04:00N 59°57' E 026°02'611.6
2017-Aug-07 03:30N 59°59' E 026°13'  

Dump ship's entire track history